Time;durP1;ratioP1;P1;durP2;ratioP2;P2;SDS_P1;SDS_P2;PMS_P1;PMS_P2;Temp;Humidity;BMP_temperature;BMP_pressure;BME280_temperature;BME280_humidity;BME280_pressure;Samples;Min_cycle;Max_cycle;Signal;HPM_P1;HPM_P2
2022/04/11 00:00:06;;;;;;;10.82;7.05;;;;;;;-0.68;100.00;160398.34;5029918;28;20041;-59
2022/04/11 00:02:32;;;;;;;11.38;7.00;;;;;;;-0.67;100.00;160401.03;5029504;28;20485;-59
2022/04/11 00:04:57;;;;;;;13.00;8.68;;;;;;;-0.62;100.00;160411.72;5029766;28;20025;-59
2022/04/11 00:07:22;;;;;;;10.52;5.47;;;;;;;-0.58;100.00;160422.47;5028483;28;20064;-59
2022/04/11 00:09:48;;;;;;;12.00;8.57;;;;;;;-0.55;100.00;160430.47;5031048;28;20021;-59
2022/04/11 00:12:13;;;;;;;19.67;8.35;;;;;;;-0.55;100.00;160430.47;5030090;28;20038;-59
2022/04/11 00:14:38;;;;;;;11.80;7.20;;;;;;;-0.57;100.00;160425.13;5034462;28;20033;-59
2022/04/11 00:17:04;;;;;;;7.28;6.13;;;;;;;-0.59;100.00;160419.78;5033699;28;20033;-59
2022/04/11 00:19:29;;;;;;;9.27;5.85;;;;;;;-0.62;100.00;160411.72;5033964;28;20083;-59
2022/04/11 00:21:55;;;;;;;12.65;7.43;;;;;;;-0.62;100.00;160411.72;5033004;28;20052;-59
2022/04/11 00:24:20;;;;;;;14.43;6.75;;;;;;;-0.57;100.00;160425.13;5034712;28;20507;-59
2022/04/11 00:26:46;;;;;;;17.55;6.53;;;;;;;-0.57;100.00;160425.13;5033056;28;20053;-59
2022/04/11 00:29:11;;;;;;;13.50;6.38;;;;;;;-0.53;100.00;160435.84;5034792;28;20033;-59
2022/04/11 00:31:36;;;;;;;11.02;6.95;;;;;;;-0.55;100.00;160431.81;5031899;28;20107;-59
2022/04/11 00:34:02;;;;;;;10.40;6.55;;;;;;;-0.51;100.00;160441.22;5034737;28;20041;-59
2022/04/11 00:36:27;;;;;;;7.30;6.47;;;;;;;-0.44;100.00;160458.59;5031926;28;20038;-59
2022/04/11 00:38:52;;;;;;;15.95;7.95;;;;;;;-0.39;100.00;160473.34;5034373;28;20029;-59
2022/04/11 00:41:18;;;;;;;12.25;6.78;;;;;;;-0.35;100.00;160484.09;5032938;28;20044;-59
2022/04/11 00:43:43;;;;;;;13.68;6.47;;;;;;;-0.37;100.00;160478.72;5034385;28;20083;-59
2022/04/11 00:46:09;;;;;;;8.45;6.88;;;;;;;-0.37;100.00;160478.72;5032915;28;20041;-59
2022/04/11 00:48:36;;;;;;;10.63;7.45;;;;;;;-0.35;100.00;160484.09;5034007;28;20029;-59
2022/04/11 00:51:10;;;;;;;13.60;6.70;;;;;;;-0.28;100.00;160500.16;5032299;28;20095;-59
2022/04/11 00:53:39;;;;;;;12.55;6.72;;;;;;;-0.29;100.00;160497.47;5034071;28;20033;-59
2022/04/11 00:56:06;;;;;;;;;;;;;;;-0.23;100.00;160513.53;5033379;28;20069;-59
2022/04/11 00:58:32;;;;;;;7.80;6.05;;;;;;;-0.21;100.00;160518.91;5033438;28;19967;-59
2022/04/11 01:00:58;;;;;;;9.50;6.57;;;;;;;-0.22;100.00;160516.22;5031734;28;20461;-59
2022/04/11 01:03:24;;;;;;;11.85;7.13;;;;;;;-0.25;100.00;160509.53;5033519;28;20063;-59
2022/04/11 01:05:49;;;;;;;9.02;7.38;;;;;;;-0.25;100.00;160508.16;5031785;28;20040;-57
2022/04/11 01:08:14;;;;;;;7.43;5.72;;;;;;;-0.28;100.00;160501.47;5034084;28;20026;-59
2022/04/11 01:10:40;;;;;;;8.82;6.82;;;;;;;-0.29;100.00;160497.47;5034232;28;20025;-59
2022/04/11 01:13:05;;;;;;;11.40;6.65;;;;;;;-0.28;100.00;160500.16;5031890;28;20094;-59
2022/04/11 01:15:31;;;;;;;11.02;7.40;;;;;;;-0.24;100.00;160512.22;5033508;28;20067;-59
2022/04/11 01:17:56;;;;;;;17.35;7.97;;;;;;;-0.22;100.00;160516.22;5032345;28;20052;-59
2022/04/11 01:20:21;;;;;;;16.08;8.55;;;;;;;-0.16;100.00;160532.28;5033166;28;20033;-59
2022/04/11 01:22:48;;;;;;;11.02;6.50;;;;;;;-0.16;100.00;160532.28;5031891;28;20041;-59
2022/04/11 01:25:14;;;;;;;7.35;5.70;;;;;;;-0.17;100.00;160529.59;5033191;28;20029;-59
2022/04/11 01:27:40;;;;;;;6.50;5.80;;;;;;;-0.19;100.00;160524.28;5031534;28;20045;-59
2022/04/11 01:30:08;;;;;;;10.38;5.47;;;;;;;-0.17;100.00;160529.59;5033848;28;20527;-59
2022/04/11 01:32:35;;;;;;;12.85;7.20;;;;;;;-0.20;100.00;160522.91;5031998;28;20603;-59
2022/04/11 01:35:01;;;;;;;9.85;6.13;;;;;;;-0.22;100.00;160516.22;5033268;28;20029;-59
2022/04/11 01:37:27;;;;;;;6.63;6.03;;;;;;;-0.23;100.00;160514.91;5031720;28;20068;-59
2022/04/11 01:39:53;;;;;;;7.60;5.75;;;;;;;-0.29;100.00;160497.47;5033544;28;20040;-59
2022/04/11 01:42:18;;;;;;;14.15;6.90;;;;;;;-0.24;100.00;160510.84;5030893;28;20128;-59
2022/04/11 01:44:43;;;;;;;8.13;6.30;;;;;;;-0.22;100.00;160517.53;5033493;28;20041;-59
2022/04/11 01:47:09;;;;;;;14.98;6.60;;;;;;;-0.18;100.00;160526.91;5030299;28;20046;-59
2022/04/11 01:49:34;;;;;;;7.95;5.95;;;;;;;-0.21;100.00;160518.91;5032421;28;20020;-59
2022/04/11 01:51:59;;;;;;;7.57;5.30;;;;;;;-0.20;100.00;160521.59;5031979;28;20501;-59
2022/04/11 01:54:25;;;;;;;10.57;5.65;;;;;;;-0.28;100.00;160500.16;5032728;28;20389;-59
2022/04/11 01:56:50;;;;;;;7.63;5.97;;;;;;;-0.25;100.00;160508.16;5030852;28;20041;-59
2022/04/11 01:59:16;;;;;;;6.85;5.97;;;;;;;-0.28;100.00;160500.16;5032618;28;20469;-59
2022/04/11 02:01:42;;;;;;;11.15;6.20;;;;;;;-0.26;100.00;160505.53;5031499;28;20437;-59
2022/04/11 02:04:07;;;;;;;6.22;5.53;;;;;;;-0.26;100.00;160505.53;5032527;28;20108;-59
2022/04/11 02:06:33;;;;;;;9.07;6.38;;;;;;;-0.26;100.00;160505.53;5031132;28;20049;-59
2022/04/11 02:08:58;;;;;;;7.35;6.57;;;;;;;-0.24;100.00;160510.84;5033006;28;20033;-59
2022/04/11 02:11:24;;;;;;;7.07;5.82;;;;;;;-0.29;100.00;160497.47;5030612;28;20033;-59
2022/04/11 02:13:49;;;;;;;7.78;6.72;;;;;;;-0.29;100.00;160497.47;5032987;28;20021;-59
2022/04/11 02:16:14;;;;;;;6.95;6.38;;;;;;;-0.29;100.00;160498.78;5030579;28;20095;-59
2022/04/11 02:18:39;;;;;;;6.20;5.57;;;;;;;-0.34;100.00;160486.78;5032485;28;20036;-59
2022/04/11 02:21:05;;;;;;;13.60;5.53;;;;;;;-0.38;100.00;160476.03;5031114;28;20044;-58
2022/04/11 02:23:30;;;;;;;6.72;6.13;;;;;;;-0.43;100.00;160462.66;5032400;28;20028;-59
2022/04/11 02:25:56;;;;;;;14.07;6.95;;;;;;;-0.47;100.00;160451.91;5030240;28;20370;-58
2022/04/11 02:28:21;;;;;;;6.80;5.80;;;;;;;-0.51;100.00;160441.22;5032696;28;20025;-59
2022/04/11 02:30:47;;;;;;;10.15;8.10;;;;;;;-0.53;100.00;160437.22;5031307;28;20420;-59
2022/04/11 02:33:12;;;;;;;7.82;6.13;;;;;;;-0.52;100.00;160439.84;5032383;28;20059;-59
2022/04/11 02:35:38;;;;;;;8.80;6.97;;;;;;;-0.51;100.00;160441.22;5031146;28;20025;-59
2022/04/11 02:38:03;;;;;;;7.47;5.63;;;;;;;-0.50;100.00;160443.91;5030689;28;20408;-59
2022/04/11 02:40:29;;;;;;;17.75;6.00;;;;;;;-0.47;100.00;160451.91;5031954;28;20030;-59
2022/04/11 02:42:54;;;;;;;9.00;6.80;;;;;;;-0.46;100.00;160454.59;5030959;28;20049;-58
2022/04/11 02:45:20;;;;;;;14.65;6.90;;;;;;;-0.45;100.00;160457.28;5031459;28;20029;-59
2022/04/11 02:47:45;;;;;;;8.35;6.93;;;;;;;-0.46;100.00;160454.59;5030029;28;20049;-58
2022/04/11 02:50:10;;;;;;;9.73;6.32;;;;;;;-0.43;100.00;160462.66;5032172;28;20025;-59
2022/04/11 02:52:36;;;;;;;7.03;6.32;;;;;;;-0.44;100.00;160459.97;5030506;28;20646;-58
2022/04/11 02:55:01;;;;;;;9.07;5.70;;;;;;;-0.43;100.00;160462.66;5031188;28;20100;-59
2022/04/11 02:57:29;;;;;;;6.57;5.97;;;;;;;-0.46;100.00;160454.59;5030408;28;20061;-59
2022/04/11 02:59:54;;;;;;;9.38;6.68;;;;;;;-0.43;100.00;160461.28;5027042;28;20053;-59
2022/04/11 03:02:20;;;;;;;6.93;6.28;;;;;;;-0.45;100.00;160455.97;5028737;28;20033;-59
2022/04/11 03:04:45;;;;;;;14.85;7.28;;;;;;;-0.46;100.00;160454.59;5031250;28;20032;-59
2022/04/11 03:07:11;;;;;;;6.57;5.88;;;;;;;-0.46;100.00;160453.25;5030509;28;20074;-59
2022/04/11 03:09:37;;;;;;;7.40;6.35;;;;;;;-0.45;100.00;160455.97;5031471;28;20428;-59
2022/04/11 03:12:03;;;;;;;10.23;6.22;;;;;;;-0.46;100.00;160454.59;5030283;28;20103;-59
2022/04/11 03:14:28;;;;;;;16.85;7.95;;;;;;;-0.52;100.00;160438.53;5030965;28;20029;-59
2022/04/11 03:16:54;;;;;;;9.32;6.40;;;;;;;-0.47;100.00;160451.91;5029879;28;20044;-59
2022/04/11 03:19:20;;;;;;;8.90;7.50;;;;;;;-0.47;100.00;160451.91;5030943;28;20040;-59
2022/04/11 03:21:45;;;;;;;6.65;6.07;;;;;;;-0.48;100.00;160449.22;5030385;28;20127;-60
2022/04/11 03:24:10;;;;;;;8.73;6.75;;;;;;;-0.50;100.00;160445.22;5031530;28;20483;-60
2022/04/11 03:26:36;;;;;;;14.35;6.60;;;;;;;-0.54;100.00;160433.16;5029220;28;20053;-60
2022/04/11 03:29:02;;;;;;;7.70;6.70;;;;;;;-0.55;100.00;160430.47;5031456;28;20477;-60
2022/04/11 03:31:27;;;;;;;8.60;6.43;;;;;;;-0.64;100.00;160407.72;5029889;28;20044;-60
2022/04/11 03:33:52;;;;;;;7.57;6.10;;;;;;;-0.62;100.00;160411.72;5030979;28;20373;-60
2022/04/11 03:36:18;;;;;;;6.18;5.55;;;;;;;-0.65;100.00;160405.03;5029542;28;20080;-60
2022/04/11 03:38:43;;;;;;;8.63;6.22;;;;;;;-0.69;100.00;160395.66;5031697;28;20021;-60
2022/04/11 03:41:09;;;;;;;7.63;6.93;;;;;;;-0.72;100.00;160387.63;5029178;28;20041;-58
2022/04/11 03:43:34;;;;;;;11.30;6.22;;;;;;;-0.73;100.00;160384.94;5030644;28;20082;-60
2022/04/11 03:45:59;;;;;;;6.22;5.72;;;;;;;-0.75;100.00;160379.59;5029276;28;20033;-60
2022/04/11 03:48:25;;;;;;;7.20;5.72;;;;;;;-0.76;100.00;160376.91;5030308;28;20033;-59
2022/04/11 03:50:50;;;;;;;10.23;8.05;;;;;;;-0.77;100.00;160374.22;5029439;28;20033;-58
2022/04/11 03:53:18;;;;;;;11.27;7.25;;;;;;;-0.74;100.00;160382.28;5030583;28;20032;-59
2022/04/11 03:55:44;;;;;;;13.60;10.35;;;;;;;-0.73;100.00;160384.94;5030777;28;20017;-59
2022/04/11 03:58:09;;;;;;;11.27;8.02;;;;;;;-0.73;100.00;160384.94;5029730;28;20455;-59
2022/04/11 04:00:35;;;;;;;23.58;18.35;;;;;;;-0.70;100.00;160391.63;5030730;28;20118;-58
2022/04/11 04:03:05;;;;;;;11.45;8.98;;;;;;;-0.71;100.00;160390.28;5028853;28;20046;-58
2022/04/11 04:05:30;;;;;;;9.98;6.95;;;;;;;-0.71;100.00;160388.97;5030647;28;20030;-58
2022/04/11 04:07:55;;;;;;;17.27;8.32;;;;;;;-0.74;100.00;160380.91;5029298;28;20042;-58
2022/04/11 04:10:21;;;;;;;12.18;9.52;;;;;;;-0.75;100.00;160378.25;5030208;28;20132;-58
2022/04/11 04:12:46;;;;;;;8.27;7.13;;;;;;;-0.79;100.00;160368.88;5028564;28;20083;-58
2022/04/11 04:15:12;;;;;;;8.90;8.10;;;;;;;-0.83;100.00;160358.16;5030507;28;20033;-58
2022/04/11 04:17:37;;;;;;;8.23;6.90;;;;;;;-0.90;100.00;160339.41;5028806;28;20492;-58
2022/04/11 04:20:04;;;;;;;10.45;8.13;;;;;;;-0.92;100.00;160334.03;5031072;28;20033;-58
2022/04/11 04:22:29;;;;;;;10.07;6.43;;;;;;;-1.01;100.00;160312.66;5028469;28;20045;-58
2022/04/11 04:24:56;;;;;;;10.10;8.18;;;;;;;-1.07;100.00;160296.53;5030411;28;20033;-58
2022/04/11 04:27:21;;;;;;;13.38;7.35;;;;;;;-1.15;100.00;160275.09;5028373;28;20120;-58
2022/04/11 04:29:46;;;;;;;17.35;7.57;;;;;;;-1.21;100.00;160259.06;5030132;28;20080;-58
2022/04/11 04:32:12;;;;;;;7.57;6.90;;;;;;;-1.26;100.00;160247.00;5029098;28;20049;-58
2022/04/11 04:34:37;;;;;;;7.20;6.60;;;;;;;-1.31;100.00;160235.00;5030628;28;20025;-58
2022/04/11 04:37:03;;;;;;;8.07;7.32;;;;;;;-1.37;100.00;160218.88;5029411;28;20408;-58
2022/04/11 04:39:28;;;;;;;22.40;9.27;;;;;;;-1.40;100.00;160210.88;5030137;28;20057;-58
2022/04/11 04:41:53;;;;;;;8.70;7.82;;;;;;;-1.44;100.00;160201.50;5029120;28;20041;-58
2022/04/11 04:44:19;;;;;;;8.93;6.80;;;;;;;-1.51;100.00;160182.78;5030028;28;20026;-58
2022/04/11 04:46:44;;;;;;;7.63;6.32;;;;;;;-1.45;100.00;160197.47;5027424;28;20038;-58
2022/04/11 04:49:09;;;;;;;9.68;7.10;;;;;;;-1.49;100.00;160186.78;5030787;28;20436;-58
2022/04/11 04:51:35;;;;;;;13.38;6.60;;;;;;;-1.53;100.00;160176.09;5028812;28;20111;-58
2022/04/11 04:54:00;;;;;;;9.88;6.78;;;;;;;-1.51;100.00;160181.41;5030308;28;20029;-58
2022/04/11 04:56:26;;;;;;;8.38;6.95;;;;;;;-1.51;100.00;160181.41;5028594;28;20029;-58
2022/04/11 04:58:51;;;;;;;9.48;8.65;;;;;;;-1.49;100.00;160188.09;5032476;28;20025;-58
2022/04/11 05:01:17;;;;;;;12.68;8.05;;;;;;;-1.44;100.00;160201.50;5032113;28;20045;-58
2022/04/11 05:03:42;;;;;;;8.38;7.57;;;;;;;-1.38;100.00;160214.88;5034171;28;20163;-58
2022/04/11 05:06:08;;;;;;;8.27;7.35;;;;;;;-1.32;100.00;160232.31;5032583;28;20037;-58
2022/04/11 05:08:33;;;;;;;9.13;7.90;;;;;;;-1.26;100.00;160245.69;5033707;28;20029;-58
2022/04/11 05:10:59;;;;;;;27.55;8.23;;;;;;;-1.18;100.00;160267.09;5032693;28;20029;-58
2022/04/11 05:13:25;;;;;;;10.90;7.85;;;;;;;-1.06;100.00;160299.22;5033784;28;20017;-58
2022/04/11 05:15:50;;;;;;;11.88;8.48;;;;;;;-0.98;100.00;160319.34;5032439;28;20029;-58
2022/04/11 05:18:15;;;;;;;9.10;8.05;;;;;;;-0.84;100.00;160355.47;5034070;28;20022;-58
2022/04/11 05:20:41;;;;;;;7.82;7.07;;;;;;;-0.71;100.00;160390.28;5033816;28;20033;-58
2022/04/11 05:23:07;;;;;;;13.30;8.82;;;;;;;-0.55;100.00;160431.81;5032112;28;20041;-58
2022/04/11 05:25:32;;;;;;;11.93;9.15;;;;;;;-0.41;100.00;160467.97;5033459;28;20099;-57
2022/04/11 05:27:58;;;;;;;9.30;8.50;;;;;;;-0.28;100.00;160501.47;5032165;28;20401;-58
2022/04/11 05:30:23;;;;;;;10.15;8.27;;;;;;;-0.19;100.00;160524.28;5033235;28;20048;-58
2022/04/11 05:32:48;;;;;;;10.73;9.32;;;;;;;-0.12;100.00;160543.03;5031840;28;20048;-58
2022/04/11 05:35:14;;;;;;;8.88;8.02;;;;;;;-0.02;100.00;160568.50;5032696;28;20021;-58
2022/04/11 05:37:39;;;;;;;13.57;8.90;;;;;;;0.05;100.00;160585.88;5028692;28;20037;-58
2022/04/11 05:40:05;;;;;;;18.77;9.75;;;;;;;0.12;100.00;160604.66;5032998;28;20029;-58
2022/04/11 05:42:31;;;;;;;11.38;7.82;;;;;;;0.29;100.00;160650.22;5026035;28;20041;-58
2022/04/11 05:44:56;;;;;;;12.50;9.60;;;;;;;0.38;100.00;160671.69;5033053;28;20047;-57
2022/04/11 05:47:22;;;;;;;12.13;8.68;;;;;;;0.51;100.00;160705.22;5028068;28;20160;-58
2022/04/11 05:49:47;;;;;;;10.57;8.38;;;;;;;0.65;100.00;160742.75;5032887;28;20495;-58
2022/04/11 05:52:21;;;;;;;12.63;8.45;;;;;;;0.77;100.00;160773.59;5031332;28;20413;-58
2022/04/11 05:54:47;;;;;;;12.10;8.88;;;;;;;0.85;100.00;160795.03;5032428;28;20033;-58
2022/04/11 05:57:12;;;;;;;12.50;8.60;;;;;;;0.94;100.00;160819.16;5031261;28;20517;-58
2022/04/11 05:59:37;;;;;;;11.63;9.27;;;;;;;1.11;100.00;160862.06;5032258;28;20389;-58
2022/04/11 06:02:03;;;;;;;10.93;8.88;;;;;;;1.22;100.00;160891.59;5031041;28;20080;-58
2022/04/11 06:04:28;;;;;;;11.85;9.05;;;;;;;1.35;100.00;160923.78;5032181;28;20025;-56
2022/04/11 06:06:54;;;;;;;11.93;8.75;;;;;;;1.50;100.00;160964.03;5031135;28;20041;-55
2022/04/11 06:09:19;;;;;;;14.30;8.70;;;;;;;1.65;100.00;161002.91;5032295;28;20028;-55
2022/04/11 06:11:44;;;;;;;9.85;8.93;;;;;;;1.75;100.00;161028.38;5031644;28;20116;-54
2022/04/11 06:14:10;;;;;;;11.40;7.82;;;;;;;1.94;100.00;161076.72;5033010;28;20029;-55
2022/04/11 06:16:35;;;;;;;15.90;10.85;;;;;;;2.04;100.00;161103.59;5030844;28;20033;-55
2022/04/11 06:19:00;;;;;;;13.05;9.35;;;;;;;2.13;100.00;161127.72;5032795;28;20025;-55
2022/04/11 06:21:26;;;;;;;16.25;10.13;;;;;;;2.21;100.00;161149.19;5031156;28;20041;-55
2022/04/11 06:23:51;;;;;;;11.10;7.47;;;;;;;2.37;100.00;161189.47;5032212;28;20501;-55
2022/04/11 06:26:17;;;;;;;10.25;8.00;;;;;;;2.57;100.00;161240.50;5030741;28;20092;-55
2022/04/11 06:28:42;;;;;;;16.33;9.15;;;;;;;2.69;100.00;161274.03;5032636;28;20017;-55
2022/04/11 06:31:13;;;;;;;12.93;8.00;;;;;;;2.79;100.00;161299.53;5030119;28;20044;-55
2022/04/11 06:33:39;;;;;;;13.68;7.90;;;;;;;2.91;100.00;161329.09;5032209;28;20030;-55
2022/04/11 06:36:04;;;;;;;13.65;9.20;;;;;;;3.14;100.00;161389.50;5030429;28;20049;-55
2022/04/11 06:38:30;;;;;;;13.00;8.50;;;;;;;3.28;100.00;161427.13;5031452;28;20379;-55
2022/04/11 06:40:59;;;;;;;13.32;8.55;;;;;;;3.42;100.00;161463.41;5030372;28;20026;-57
2022/04/11 06:43:24;;;;;;;13.80;7.80;;;;;;;3.57;100.00;161501.03;5031670;28;20547;-55
2022/04/11 06:45:50;;;;;;;14.98;8.20;;;;;;;3.76;100.00;161552.06;5030001;28;20025;-55
2022/04/11 06:48:15;;;;;;;9.70;8.65;;;;;;;3.96;100.00;161604.47;5031384;28;20029;-55
2022/04/11 06:50:41;;;;;;;15.02;9.45;;;;;;;4.11;100.00;161643.47;5031494;28;20020;-55
2022/04/11 06:53:06;;;;;;;12.13;9.38;;;;;;;4.34;100.00;161702.63;5029958;28;20080;-55
2022/04/11 06:55:32;;;;;;;14.57;9.15;;;;;;;4.39;100.00;161716.06;5031367;28;20017;-55
2022/04/11 06:57:58;;;;;;;11.80;8.82;;;;;;;4.65;100.00;161781.91;5030170;28;20117;-55
2022/04/11 07:00:24;;;;;;;11.40;8.75;;;;;;;4.90;100.00;161847.81;5027966;28;20519;-54
2022/04/11 07:02:50;;;;;;;14.93;7.97;;;;;;;5.14;100.00;161911.00;5030020;28;20049;-55
2022/04/11 07:05:15;;;;;;;9.50;8.52;;;;;;;5.43;100.00;161986.38;5030826;28;20018;-55
2022/04/11 07:07:40;;;;;;;11.00;8.30;;;;;;;5.70;100.00;162057.63;5028518;28;20033;-55
2022/04/11 07:10:09;;;;;;;11.18;8.15;;;;;;;6.00;100.00;162135.72;5030876;28;20056;-55
2022/04/11 07:12:41;;;;;;;9.82;7.13;;;;;;;6.23;100.00;162194.94;5028850;28;20373;-55
2022/04/11 07:15:07;;;;;;;13.27;9.25;;;;;;;6.62;100.00;162295.94;5027801;28;20028;-55
2022/04/11 07:17:32;;;;;;;12.35;6.65;;;;;;;7.17;100.00;162440.03;5028644;28;20872;-55
2022/04/11 07:19:58;;;;;;;10.65;7.70;;;;;;;7.80;100.00;162604.34;5027753;28;20044;-55
2022/04/11 07:22:23;;;;;;;10.95;7.95;;;;;;;8.62;100.00;162817.34;5025974;28;20512;-55
2022/04/11 07:24:49;;;;;;;12.73;6.75;;;;;;;9.89;100.00;163149.09;5026734;28;20024;-55
2022/04/11 07:27:14;;;;;;;8.98;5.85;;;;;;;11.14;100.00;163475.78;5027863;28;20088;-55
2022/04/11 07:29:39;;;;;;;12.27;6.07;;;;;;;12.04;100.00;163712.22;5028431;28;20432;-56
2022/04/11 07:32:05;;;;;;;5.13;4.57;;;;;;;13.24;100.00;164027.09;5029053;28;20041;-56
2022/04/11 07:34:31;;;;;;;6.68;4.68;;;;;;;13.78;100.00;164167.78;5030463;28;20415;-53
2022/04/11 07:36:56;;;;;;;10.73;5.20;;;;;;;14.37;100.00;164322.00;5028458;28;20038;-56
2022/04/11 07:39:23;;;;;;;8.65;5.40;;;;;;;14.47;100.00;164347.69;5030811;28;20029;-56
2022/04/11 07:41:55;;;;;;;5.70;4.28;;;;;;;14.69;98.27;164405.94;5029875;28;20095;-56
2022/04/11 07:44:20;;;;;;;11.02;4.10;;;;;;;14.94;96.65;164470.88;5030380;28;20040;-56
2022/04/11 07:46:45;;;;;;;5.75;3.85;;;;;;;15.14;99.37;164525.03;5028891;28;20030;-56
2022/04/11 07:49:11;;;;;;;8.82;4.35;;;;;;;14.95;97.10;164473.56;5028974;28;20404;-56
2022/04/11 07:51:36;;;;;;;9.93;4.85;;;;;;;15.14;90.50;164525.03;5027958;28;20034;-56
2022/04/11 07:54:02;;;;;;;8.55;5.15;;;;;;;15.20;94.17;164541.28;5031318;28;20033;-56
2022/04/11 07:56:29;;;;;;;7.22;4.68;;;;;;;15.22;92.89;164546.72;5029597;28;20484;-55
2022/04/11 07:58:57;;;;;;;5.40;4.70;;;;;;;15.03;90.40;164495.22;5030747;28;20033;-56
2022/04/11 08:01:23;;;;;;;5.13;4.03;;;;;;;14.31;91.82;164305.75;5027622;28;20045;-56
2022/04/11 08:03:49;;;;;;;8.38;4.40;;;;;;;14.39;90.33;164327.41;5030383;28;20044;-56
2022/04/11 08:06:14;;;;;;;8.40;5.10;;;;;;;14.49;90.81;164354.44;5027200;28;20075;-56
2022/04/11 08:08:47;;;;;;;7.15;6.03;;;;;;;14.18;90.39;164273.31;5029904;28;20430;-56
2022/04/11 08:11:13;;;;;;;7.47;4.88;;;;;;;14.21;93.66;164281.41;5029806;28;20112;-55
2022/04/11 08:13:39;;;;;;;6.55;5.60;;;;;;;15.23;98.55;164548.03;5030444;28;20477;-56
2022/04/11 08:16:04;;;;;;;8.45;6.18;;;;;;;15.96;88.19;164739.00;5029622;28;20036;-56
2022/04/11 08:18:30;;;;;;;8.23;4.97;;;;;;;15.98;85.76;164745.75;5030728;28;20021;-56
2022/04/11 08:20:55;;;;;;;7.35;4.32;;;;;;;15.55;84.92;164631.97;5029134;28;20381;-56
2022/04/11 08:23:20;;;;;;;8.65;5.57;;;;;;;15.61;82.71;164646.84;5022776;28;20018;-56
2022/04/11 08:25:47;;;;;;;5.47;4.28;;;;;;;16.41;83.66;164858.19;5027095;28;20021;-54
2022/04/11 08:28:13;;;;;;;10.48;4.90;;;;;;;17.14;86.14;165049.22;5026912;28;20567;-56
2022/04/11 08:30:38;;;;;;;11.23;5.55;;;;;;;16.79;79.62;164957.03;5030867;28;20033;-56
2022/04/11 08:33:03;;;;;;;9.65;5.88;;;;;;;16.17;80.81;164795.88;5030161;28;20060;-56
2022/04/11 08:35:29;;;;;;;5.47;4.30;;;;;;;16.49;86.82;164879.81;5032898;28;20022;-56
2022/04/11 08:37:54;;;;;;;9.52;4.45;;;;;;;15.81;82.13;164701.03;5032181;28;20033;-56
2022/04/11 08:40:20;;;;;;;7.18;5.28;;;;;;;16.30;84.24;164828.34;5034444;28;20084;-56
2022/04/11 08:42:48;;;;;;;9.65;4.35;;;;;;;16.30;81.01;164828.34;5032089;28;20052;-53
2022/04/11 08:45:14;;;;;;;6.35;4.60;;;;;;;16.38;81.38;164850.03;5034268;28;20391;-53
2022/04/11 08:47:40;;;;;;;9.82;4.72;;;;;;;16.42;81.89;164860.84;5029710;28;20042;-53
2022/04/11 08:50:06;;;;;;;7.93;4.68;;;;;;;16.30;82.40;164828.34;5028955;28;20032;-53
2022/04/11 08:52:35;;;;;;;6.22;3.83;;;;;;;15.60;81.00;164644.16;5032162;28;20037;-53
2022/04/11 08:55:01;;;;;;;11.10;4.72;;;;;;;15.81;81.29;164699.66;5031828;28;20044;-53
2022/04/11 08:57:27;;;;;;;7.97;4.53;;;;;;;16.60;82.36;164906.91;5030598;28;20033;-53
2022/04/11 08:59:52;;;;;;;11.13;4.57;;;;;;;16.56;77.00;164896.09;5033722;28;20040;-53
2022/04/11 09:02:18;;;;;;;8.90;5.13;;;;;;;16.69;77.66;164929.94;5032486;28;20385;-53
2022/04/11 09:04:49;;;;;;;7.40;4.68;;;;;;;16.54;79.53;164890.66;5033945;28;20037;-53
2022/04/11 09:07:14;;;;;;;10.63;4.20;;;;;;;16.23;77.20;164809.41;5030852;28;20386;-54
2022/04/11 09:09:39;;;;;;;6.13;4.88;;;;;;;16.57;75.30;164898.81;5034080;28;20037;-53
2022/04/11 09:12:05;;;;;;;8.48;5.80;;;;;;;16.22;75.21;164806.69;5032880;28;20505;-53
2022/04/11 09:14:32;;;;;;;6.72;4.03;;;;;;;16.58;81.84;164902.88;5033450;28;20503;-53
2022/04/11 09:16:57;;;;;;;7.18;4.45;;;;;;;16.97;76.84;165004.50;5032391;28;20041;-54
2022/04/11 09:19:28;;;;;;;7.93;4.82;;;;;;;17.08;79.84;165032.97;5033585;28;20025;-54
2022/04/11 09:21:56;;;;;;;8.02;5.15;;;;;;;17.51;76.06;165145.44;5032358;28;20052;-53
2022/04/11 09:24:22;;;;;;;9.70;4.15;;;;;;;17.43;75.66;165126.47;5033304;28;20025;-56
2022/04/11 09:26:49;;;;;;;10.75;4.85;;;;;;;18.04;75.20;165285.09;5032441;28;20048;-56
2022/04/11 09:29:15;;;;;;;6.72;5.30;;;;;;;17.70;73.42;165196.94;5033400;28;20051;-56
2022/04/11 09:31:41;;;;;;;8.75;4.47;;;;;;;17.49;73.89;165140.03;5032424;28;20030;-54
2022/04/11 09:34:32;;;;;;;8.07;5.82;;;;;;;17.23;74.42;165072.28;5034021;28;20025;-54
2022/04/11 09:37:01;;;;;;;8.73;4.50;;;;;;;17.10;72.61;165039.72;5031943;28;20038;-54
2022/04/11 09:39:36;;;;;;;10.57;5.18;;;;;;;16.67;69.00;164925.88;5033274;28;20627;-54
2022/04/11 09:42:05;;;;;;;7.90;5.00;;;;;;;16.54;67.82;164890.66;5029554;28;20037;-54
2022/04/11 09:44:33;;;;;;;5.95;5.25;;;;;;;16.42;66.30;164860.84;5030195;28;20489;-53
2022/04/11 09:47:00;;;;;;;9.75;5.35;;;;;;;16.05;61.51;164763.31;5031747;28;20103;-54
2022/04/11 09:49:26;;;;;;;10.27;5.40;;;;;;;16.26;69.10;164817.53;5032594;28;20080;-54
2022/04/11 09:52:11;;;;;;;7.00;5.03;;;;;;;16.78;66.00;164955.72;5031723;28;20464;-54
2022/04/11 09:54:52;;;;;;;7.18;5.32;;;;;;;16.99;64.03;165009.94;5033229;28;20025;-54
2022/04/11 09:57:18;;;;;;;8.18;4.53;;;;;;;16.33;64.80;164836.50;5031420;28;20436;-54
2022/04/11 09:59:45;;;;;;;12.07;5.90;;;;;;;16.31;71.88;164831.06;5032831;28;20397;-53
2022/04/11 10:02:12;;;;;;;8.00;4.57;;;;;;;16.52;70.35;164885.22;5031857;28;20042;-54
2022/04/11 10:04:39;;;;;;;6.25;5.60;;;;;;;16.92;68.19;164990.94;5032391;28;20059;-54
2022/04/11 10:07:08;;;;;;;10.00;6.30;;;;;;;17.38;66.60;165112.94;5031416;28;20037;-54
2022/04/11 10:09:35;;;;;;;8.43;4.85;;;;;;;17.29;61.89;165089.88;5032809;28;20168;-54
2022/04/11 10:12:01;;;;;;;6.88;5.53;;;;;;;16.47;61.18;164874.41;5031280;28;20048;-54
2022/04/11 10:14:27;;;;;;;7.88;6.22;;;;;;;16.64;61.01;164919.13;5031968;28;20022;-54
2022/04/11 10:17:00;;;;;;;9.45;6.70;;;;;;;16.81;66.00;164962.47;5011725;28;20123;-54
2022/04/11 10:19:29;;;;;;;11.32;7.18;;;;;;;16.61;58.48;164910.97;5013677;28;20076;-54
2022/04/11 10:21:59;;;;;;;7.25;5.47;;;;;;;16.58;64.51;164901.47;5031374;28;20091;-54
2022/04/11 10:24:53;;;;;;;7.63;6.00;;;;;;;16.36;59.75;164844.59;5032621;28;20095;-54
2022/04/11 10:27:25;;;;;;;8.95;6.07;;;;;;;16.65;63.15;164920.44;5030616;28;20045;-54
2022/04/11 10:29:55;;;;;;;8.60;5.80;;;;;;;16.13;61.45;164785.00;5032264;28;20037;-54
2022/04/11 10:32:23;;;;;;;7.75;4.75;;;;;;;16.17;62.92;164794.47;5031016;28;20095;-54
2022/04/11 10:35:05;;;;;;;5.57;4.95;;;;;;;16.23;63.53;164809.41;5032130;28;20029;-56
2022/04/11 10:37:40;;;;;;;7.03;4.57;;;;;;;16.49;61.62;164879.81;5030403;28;20044;-54
2022/04/11 10:40:17;;;;;;;7.20;5.68;;;;;;;16.54;61.83;164890.66;5032407;28;20029;-54
2022/04/11 10:43:00;;;;;;;5.78;5.18;;;;;;;16.15;61.19;164789.09;5022422;28;20496;-53
2022/04/11 10:45:36;;;;;;;8.25;5.50;;;;;;;15.79;63.20;164695.59;5010548;28;20499;-54
2022/04/11 10:48:06;;;;;;;5.65;5.05;;;;;;;16.53;61.86;164887.94;5010835;28;20038;-54
2022/04/11 10:50:36;;;;;;;8.23;6.10;;;;;;;16.69;70.69;164931.31;5011941;28;20026;-54
2022/04/11 10:53:11;;;;;;;4.95;4.47;;;;;;;16.91;67.78;164988.22;5011215;28;20045;-54
2022/04/11 10:55:54;;;;;;;9.15;5.28;;;;;;;17.02;65.00;165018.03;5011318;28;20548;-54
2022/04/11 10:58:37;;;;;;;6.43;4.25;;;;;;;17.17;63.66;165055.97;5010382;28;20069;-54
2022/04/11 11:01:03;;;;;;;6.50;4.80;;;;;;;17.50;67.75;165142.72;5010618;28;20054;-54
2022/04/11 11:03:28;;;;;;;6.72;4.75;;;;;;;16.85;59.31;164971.97;5011560;28;20040;-54
2022/04/11 11:05:54;;;;;;;9.50;5.15;;;;;;;16.52;61.40;164885.22;5010920;28;20018;-54
2022/04/11 11:08:21;;;;;;;6.85;4.50;;;;;;;16.99;63.18;165009.94;5011841;28;20479;-54
2022/04/11 11:11:02;;;;;;;7.18;4.85;;;;;;;16.75;53.76;164946.22;5010454;28;20080;-53
2022/04/11 11:13:34;;;;;;;4.28;3.85;;;;;;;16.04;56.64;164760.66;5011999;28;20029;-54